createdAt,value
2018-07-19T19:07:22.645Z,24.60
2018-07-19T19:09:50.839Z,24.40
2018-07-19T19:12:18.992Z,24.30
2018-07-19T19:14:47.143Z,24.10
2018-07-19T19:17:15.316Z,23.80
2018-07-19T19:19:43.465Z,23.70
2018-07-19T19:22:11.617Z,23.60
2018-07-19T19:24:39.854Z,23.30
2018-07-19T19:27:08.042Z,23.20
2018-07-19T19:29:36.185Z,23.30
2018-07-19T19:32:04.377Z,23.00
2018-07-19T19:34:32.555Z,22.90
2018-07-19T19:37:00.732Z,22.70
2018-07-19T19:39:28.888Z,22.60
2018-07-19T19:41:57.069Z,22.60
2018-07-19T19:44:25.250Z,22.50
2018-07-19T19:46:53.449Z,22.50
2018-07-19T19:49:21.638Z,22.30
2018-07-19T19:51:49.804Z,22.20
2018-07-19T19:54:18.042Z,22.10
2018-07-19T19:56:46.177Z,22.10
2018-07-19T19:59:14.354Z,21.90
2018-07-19T20:01:42.558Z,21.90
2018-07-19T20:04:11.555Z,21.80
2018-07-19T20:06:41.288Z,21.80
2018-07-19T20:09:10.577Z,21.80
2018-07-19T20:11:38.825Z,21.70
2018-07-19T20:14:07.019Z,21.60
2018-07-19T20:16:35.245Z,21.60
2018-07-19T20:19:03.421Z,21.40
2018-07-19T20:21:31.711Z,21.40
2018-07-19T20:24:00.013Z,21.30
2018-07-19T20:26:28.225Z,21.20
2018-07-19T20:28:56.418Z,21.10
2018-07-19T20:31:24.836Z,21.00
2018-07-19T20:33:53.113Z,20.90
2018-07-19T20:36:21.291Z,20.90
2018-07-19T20:38:49.569Z,20.90
2018-07-19T20:41:17.765Z,20.80
2018-07-19T20:43:45.974Z,20.80
2018-07-19T20:46:14.149Z,20.70
2018-07-19T20:48:42.350Z,20.60
2018-07-19T20:51:10.592Z,20.60
2018-07-19T20:53:38.813Z,20.40
2018-07-19T20:56:06.975Z,20.30
2018-07-19T20:58:35.179Z,20.30
2018-07-19T21:01:03.583Z,20.20
2018-07-19T21:03:31.764Z,20.30
2018-07-19T21:05:59.948Z,20.20
2018-07-19T21:08:28.131Z,20.10
2018-07-19T21:10:56.305Z,20.10
2018-07-19T21:13:24.456Z,20.00
2018-07-19T21:15:52.609Z,20.00
2018-07-19T21:18:20.799Z,20.00
2018-07-19T21:20:48.957Z,19.90
2018-07-19T21:23:17.113Z,20.00
2018-07-19T21:25:45.277Z,19.90
2018-07-19T21:28:13.443Z,19.80
2018-07-19T21:30:41.620Z,19.80
2018-07-19T21:33:09.791Z,19.70
2018-07-19T21:35:38.527Z,19.60
2018-07-19T21:38:06.680Z,19.60
2018-07-19T21:40:34.843Z,19.50
2018-07-19T21:43:03.036Z,19.50
2018-07-19T21:45:31.193Z,19.50
2018-07-19T21:47:59.378Z,19.40
2018-07-19T21:50:27.568Z,19.40
2018-07-19T21:52:55.861Z,19.30
2018-07-19T21:55:24.015Z,19.20
2018-07-19T21:57:52.280Z,19.20
2018-07-19T22:00:20.433Z,19.20
2018-07-19T22:02:48.599Z,19.10
2018-07-19T22:05:16.761Z,19.30
2018-07-19T22:07:44.952Z,19.50
2018-07-19T22:10:13.121Z,19.40
2018-07-19T22:12:41.283Z,19.50
2018-07-19T22:15:10.269Z,19.60
2018-07-19T22:17:38.459Z,19.60
2018-07-19T22:20:06.652Z,19.60
2018-07-19T22:22:34.807Z,19.50
2018-07-19T22:25:04.006Z,19.30
2018-07-19T22:27:32.197Z,19.20
2018-07-19T22:30:00.369Z,19.10
2018-07-19T22:32:28.557Z,19.00
2018-07-19T22:34:56.825Z,18.90
2018-07-19T22:37:24.974Z,19.00
2018-07-19T22:39:53.125Z,19.10
2018-07-19T22:42:22.106Z,19.00
2018-07-19T22:44:50.245Z,19.00
2018-07-19T22:47:18.425Z,19.10
2018-07-19T22:49:46.569Z,19.00
2018-07-19T22:52:14.734Z,18.90
2018-07-19T22:54:42.893Z,18.90
2018-07-19T22:57:11.080Z,16.00
2018-07-19T22:59:39.236Z,18.70
2018-07-19T23:02:07.398Z,18.70
2018-07-19T23:04:35.552Z,18.70
2018-07-19T23:07:03.713Z,18.60
2018-07-19T23:09:31.858Z,18.50
2018-07-19T23:12:00.026Z,18.40
2018-07-19T23:14:28.197Z,18.40
2018-07-19T23:16:56.350Z,18.50
2018-07-19T23:19:24.496Z,18.70
2018-07-19T23:21:52.688Z,18.50
2018-07-19T23:24:20.847Z,18.30
2018-07-19T23:26:49.008Z,18.20
2018-07-19T23:29:17.153Z,18.20
2018-07-19T23:31:45.325Z,18.10
2018-07-19T23:34:13.467Z,18.10
2018-07-19T23:36:46.321Z,18.10
2018-07-19T23:39:19.008Z,18.00
2018-07-19T23:41:51.597Z,18.00
2018-07-19T23:44:25.154Z,18.00
2018-07-19T23:46:57.031Z,18.00
2018-07-19T23:49:25.188Z,17.90
2018-07-19T23:51:53.356Z,17.80
2018-07-19T23:54:21.511Z,17.70
2018-07-19T23:56:49.665Z,17.70
2018-07-19T23:59:17.830Z,17.70
